sensor_id;sensor_type;location;lat;lon;timestamp;pressure;altitude;pressure_sealevel;temperature;humidity
35226;BME280;21813;49.686;21.766;2023-04-25T00:00:23;97205.25;;;10.98;100.00
35226;BME280;21813;49.686;21.766;2023-04-25T00:03:08;97193.41;;;11.04;100.00
35226;BME280;21813;49.686;21.766;2023-04-25T00:05:35;97194.03;;;11.06;100.00
35226;BME280;21813;49.686;21.766;2023-04-25T00:08:03;97189.66;;;11.06;100.00
35226;BME280;21813;49.686;21.766;2023-04-25T00:10:29;97182.78;;;11.05;100.00
35226;BME280;21813;49.686;21.766;2023-04-25T00:12:55;97180.19;;;11.05;100.00
35226;BME280;21813;49.686;21.766;2023-04-25T00:15:22;97187.41;;;11.12;100.00
35226;BME280;21813;49.686;21.766;2023-04-25T00:17:49;97167.47;;;11.02;100.00
35226;BME280;21813;49.686;21.766;2023-04-25T00:20:17;97171.25;;;11.08;100.00
35226;BME280;21813;49.686;21.766;2023-04-25T00:22:42;97189.22;;;11.19;100.00
35226;BME280;21813;49.686;21.766;2023-04-25T00:25:10;97175.03;;;11.14;100.00
35226;BME280;21813;49.686;21.766;2023-04-25T00:27:35;97161.31;;;11.12;100.00
35226;BME280;21813;49.686;21.766;2023-04-25T00:30:03;97174.72;;;11.17;100.00
35226;BME280;21813;49.686;21.766;2023-04-25T00:32:29;97169.50;;;11.17;100.00
35226;BME280;21813;49.686;21.766;2023-04-25T00:34:55;97178.50;;;11.22;100.00
35226;BME280;21813;49.686;21.766;2023-04-25T00:37:23;97148.91;;;11.05;100.00
35226;BME280;21813;49.686;21.766;2023-04-25T00:39:50;97182.59;;;11.25;100.00
35226;BME280;21813;49.686;21.766;2023-04-25T00:42:16;97179.81;;;11.26;100.00
35226;BME280;21813;49.686;21.766;2023-04-25T00:44:43;97157.13;;;11.19;100.00
35226;BME280;21813;49.686;21.766;2023-04-25T00:47:11;97174.59;;;11.26;100.00
35226;BME280;21813;49.686;21.766;2023-04-25T00:49:37;97154.47;;;11.11;100.00
35226;BME280;21813;49.686;21.766;2023-04-25T00:52:03;97168.22;;;11.21;100.00
35226;BME280;21813;49.686;21.766;2023-04-25T00:54:30;97160.03;;;11.16;100.00
35226;BME280;21813;49.686;21.766;2023-04-25T00:56:56;97174.25;;;11.21;100.00
35226;BME280;21813;49.686;21.766;2023-04-25T00:59:23;97162.66;;;11.16;100.00
35226;BME280;21813;49.686;21.766;2023-04-25T01:01:49;97179.31;;;11.23;100.00
35226;BME280;21813;49.686;21.766;2023-04-25T01:04:17;97164.50;;;11.23;100.00
35226;BME280;21813;49.686;21.766;2023-04-25T01:06:43;97150.56;;;11.15;100.00
35226;BME280;21813;49.686;21.766;2023-04-25T01:09:10;97164.31;;;11.25;100.00
35226;BME280;21813;49.686;21.766;2023-04-25T01:11:36;97151.09;;;11.18;100.00
35226;BME280;21813;49.686;21.766;2023-04-25T01:14:03;97162.03;;;11.22;100.00
35226;BME280;21813;49.686;21.766;2023-04-25T01:16:28;97156.81;;;11.22;100.00
35226;BME280;21813;49.686;21.766;2023-04-25T01:18:56;97151.59;;;11.22;100.00
35226;BME280;21813;49.686;21.766;2023-04-25T01:21:22;97148.03;;;11.23;100.00
35226;BME280;21813;49.686;21.766;2023-04-25T01:23:48;97152.91;;;11.26;100.00
35226;BME280;21813;49.686;21.766;2023-04-25T01:26:15;97142.50;;;11.26;100.00
35226;BME280;21813;49.686;21.766;2023-04-25T01:28:42;97142.00;;;11.22;100.00
35226;BME280;21813;49.686;21.766;2023-04-25T01:31:08;97143.44;;;11.17;100.00
35226;BME280;21813;49.686;21.766;2023-04-25T01:33:35;97141.78;;;11.16;100.00
35226;BME280;21813;49.686;21.766;2023-04-25T01:36:01;97144.25;;;11.17;100.00
35226;BME280;21813;49.686;21.766;2023-04-25T01:38:28;97143.44;;;11.17;100.00
35226;BME280;21813;49.686;21.766;2023-04-25T01:40:54;97140.00;;;11.16;100.00
35226;BME280;21813;49.686;21.766;2023-04-25T01:43:22;97143.44;;;11.17;100.00
35226;BME280;21813;49.686;21.766;2023-04-25T01:45:49;97145.38;;;11.15;100.00
35226;BME280;21813;49.686;21.766;2023-04-25T01:48:15;97137.84;;;11.12;100.00
35226;BME280;21813;49.686;21.766;2023-04-25T01:50:41;97139.16;;;11.07;100.00
35226;BME280;21813;49.686;21.766;2023-04-25T01:53:09;97124.66;;;11.05;100.00
35226;BME280;21813;49.686;21.766;2023-04-25T01:55:36;97126.72;;;11.01;100.00
35226;BME280;21813;49.686;21.766;2023-04-25T01:58:04;97134.06;;;11.06;100.00
35226;BME280;21813;49.686;21.766;2023-04-25T02:00:35;97119.22;;;10.98;100.00
35226;BME280;21813;49.686;21.766;2023-04-25T02:03:05;97128.72;;;11.07;100.00
35226;BME280;21813;49.686;21.766;2023-04-25T02:05:38;97137.72;;;11.13;100.00
35226;BME280;21813;49.686;21.766;2023-04-25T02:08:06;97135.59;;;11.17;100.00
35226;BME280;21813;49.686;21.766;2023-04-25T02:10:33;97137.38;;;11.16;100.00
35226;BME280;21813;49.686;21.766;2023-04-25T02:12:59;97125.16;;;11.08;100.00
35226;BME280;21813;49.686;21.766;2023-04-25T02:15:25;97128.41;;;11.11;100.00
35226;BME280;21813;49.686;21.766;2023-04-25T02:17:52;97130.53;;;11.15;100.00
35226;BME280;21813;49.686;21.766;2023-04-25T02:20:21;97121.84;;;11.06;100.00
35226;BME280;21813;49.686;21.766;2023-04-25T02:22:48;97117.63;;;11.05;100.00
35226;BME280;21813;49.686;21.766;2023-04-25T02:25:14;97125.16;;;11.08;100.00
35226;BME280;21813;49.686;21.766;2023-04-25T02:27:43;97115.00;;;11.05;100.00
35226;BME280;21813;49.686;21.766;2023-04-25T02:30:09;97115.22;;;11.12;100.00
35226;BME280;21813;49.686;21.766;2023-04-25T02:32:36;97118.66;;;11.21;100.00
35226;BME280;21813;49.686;21.766;2023-04-25T02:35:02;97117.19;;;11.18;100.00
35226;BME280;21813;49.686;21.766;2023-04-25T02:37:30;97117.34;;;11.17;100.00
35226;BME280;21813;49.686;21.766;2023-04-25T02:39:56;97119.28;;;11.15;100.00
35226;BME280;21813;49.686;21.766;2023-04-25T02:42:24;97115.56;;;11.17;100.00
35226;BME280;21813;49.686;21.766;2023-04-25T02:44:49;97105.09;;;11.09;100.00
35226;BME280;21813;49.686;21.766;2023-04-25T02:47:16;97096.59;;;11.07;100.00
35226;BME280;21813;49.686;21.766;2023-04-25T02:49:41;97113.91;;;11.08;100.00
35226;BME280;21813;49.686;21.766;2023-04-25T02:52:08;97099.53;;;11.04;100.00
35226;BME280;21813;49.686;21.766;2023-04-25T02:54:34;97110.31;;;11.09;100.00
35226;BME280;21813;49.686;21.766;2023-04-25T02:57:01;97102.44;;;11.01;100.00
35226;BME280;21813;49.686;21.766;2023-04-25T02:59:28;97110.63;;;11.06;100.00
35226;BME280;21813;49.686;21.766;2023-04-25T03:01:54;97111.94;;;11.10;100.00
35226;BME280;21813;49.686;21.766;2023-04-25T03:04:20;97107.03;;;11.07;100.00
35226;BME280;21813;49.686;21.766;2023-04-25T03:06:47;97099.03;;;11.00;100.00
35226;BME280;21813;49.686;21.766;2023-04-25T03:09:13;97098.72;;;11.03;100.00
35226;BME280;21813;49.686;21.766;2023-04-25T03:11:39;97107.34;;;11.04;100.00
35226;BME280;21813;49.686;21.766;2023-04-25T03:14:05;97103.25;;;11.01;100.00
35226;BME280;21813;49.686;21.766;2023-04-25T03:16:32;97096.72;;;10.97;100.00
35226;BME280;21813;49.686;21.766;2023-04-25T03:18:57;97095.91;;;10.97;100.00
35226;BME280;21813;49.686;21.766;2023-04-25T03:21:25;97075.34;;;10.86;100.00
35226;BME280;21813;49.686;21.766;2023-04-25T03:23:51;97087.91;;;10.90;100.00
35226;BME280;21813;49.686;21.766;2023-04-25T03:26:18;97088.25;;;10.95;100.00
35226;BME280;21813;49.686;21.766;2023-04-25T03:28:44;97090.88;;;10.95;100.00
35226;BME280;21813;49.686;21.766;2023-04-25T03:31:11;97107.34;;;11.04;100.00
35226;BME280;21813;49.686;21.766;2023-04-25T03:33:37;97084.00;;;10.94;100.00
35226;BME280;21813;49.686;21.766;2023-04-25T03:36:05;97092.81;;;11.01;100.00
35226;BME280;21813;49.686;21.766;2023-04-25T03:38:31;97097.22;;;11.01;100.00
35226;BME280;21813;49.686;21.766;2023-04-25T03:40:58;97090.91;;;11.03;100.00
35226;BME280;21813;49.686;21.766;2023-04-25T03:43:24;97086.00;;;11.00;100.00
35226;BME280;21813;49.686;21.766;2023-04-25T03:45:51;97092.22;;;11.07;100.00
35226;BME280;21813;49.686;21.766;2023-04-25T03:48:17;97099.06;;;11.08;100.00
35226;BME280;21813;49.686;21.766;2023-04-25T03:50:44;97078.69;;;11.04;100.00
35226;BME280;21813;49.686;21.766;2023-04-25T03:53:10;97095.50;;;11.10;100.00
35226;BME280;21813;49.686;21.766;2023-04-25T03:55:37;97097.78;;;11.13;100.00
35226;BME280;21813;49.686;21.766;2023-04-25T03:58:02;97096.28;;;11.10;100.00
35226;BME280;21813;49.686;21.766;2023-04-25T04:00:30;97087.00;;;11.07;100.00
35226;BME280;21813;49.686;21.766;2023-04-25T04:02:56;97103.00;;;11.13;100.00
35226;BME280;21813;49.686;21.766;2023-04-25T04:05:23;97100.38;;;11.13;100.00
35226;BME280;21813;49.686;21.766;2023-04-25T04:07:49;97098.75;;;11.12;100.00
35226;BME280;21813;49.686;21.766;2023-04-25T04:10:15;97100.38;;;11.13;100.00
35226;BME280;21813;49.686;21.766;2023-04-25T04:12:41;97117.56;;;11.23;100.00
35226;BME280;21813;49.686;21.766;2023-04-25T04:15:09;97103.34;;;11.18;100.00
35226;BME280;21813;49.686;21.766;2023-04-25T04:17:35;97098.28;;;11.16;100.00
35226;BME280;21813;49.686;21.766;2023-04-25T04:20:02;97104.31;;;11.17;100.00
35226;BME280;21813;49.686;21.766;2023-04-25T04:22:29;97113.78;;;11.26;100.00
35226;BME280;21813;49.686;21.766;2023-04-25T04:24:57;97107.91;;;11.24;100.00
35226;BME280;21813;49.686;21.766;2023-04-25T04:27:23;97103.34;;;11.18;100.00
35226;BME280;21813;49.686;21.766;2023-04-25T04:29:49;97097.31;;;11.17;100.00
35226;BME280;21813;49.686;21.766;2023-04-25T04:32:16;97095.34;;;11.19;100.00
35226;BME280;21813;49.686;21.766;2023-04-25T04:34:43;97111.19;;;11.26;100.00
35226;BME280;21813;49.686;21.766;2023-04-25T04:37:10;97096.47;;;11.17;100.00
35226;BME280;21813;49.686;21.766;2023-04-25T04:39:36;97097.31;;;11.17;100.00
35226;BME280;21813;49.686;21.766;2023-04-25T04:42:02;97111.19;;;11.26;100.00
35226;BME280;21813;49.686;21.766;2023-04-25T04:44:29;97098.94;;;11.18;100.00
35226;BME280;21813;49.686;21.766;2023-04-25T04:46:58;97096.47;;;11.17;100.00
35226;BME280;21813;49.686;21.766;2023-04-25T04:49:26;97105.63;;;11.21;100.00
35226;BME280;21813;49.686;21.766;2023-04-25T04:51:52;97106.59;;;11.20;100.00
35226;BME280;21813;49.686;21.766;2023-04-25T04:54:18;97096.00;;;11.13;100.00
35226;BME280;21813;49.686;21.766;2023-04-25T04:56:44;97110.97;;;11.11;100.00
35226;BME280;21813;49.686;21.766;2023-04-25T04:59:10;97109.19;;;11.12;100.00
35226;BME280;21813;49.686;21.766;2023-04-25T05:01:36;97096.72;;;10.97;100.00
35226;BME280;21813;49.686;21.766;2023-04-25T05:04:03;97111.09;;;11.01;100.00
35226;BME280;21813;49.686;21.766;2023-04-25T05:06:29;97104.69;;;10.96;100.00
35226;BME280;21813;49.686;21.766;2023-04-25T05:08:57;97105.84;;;10.93;100.00
35226;BME280;21813;49.686;21.766;2023-04-25T05:11:23;97112.97;;;10.91;100.00
35226;BME280;21813;49.686;21.766;2023-04-25T05:13:51;97109.06;;;10.87;100.00
35226;BME280;21813;49.686;21.766;2023-04-25T05:16:17;97116.06;;;10.87;100.00
35226;BME280;21813;49.686;21.766;2023-04-25T05:18:44;97114.44;;;10.86;100.00
35226;BME280;21813;49.686;21.766;2023-04-25T05:21:10;97103.94;;;10.78;100.00
35226;BME280;21813;49.686;21.766;2023-04-25T05:23:37;97117.50;;;10.81;100.00
35226;BME280;21813;49.686;21.766;2023-04-25T05:26:02;97108.97;;;10.71;100.00
35226;BME280;21813;49.686;21.766;2023-04-25T05:28:30;97126.63;;;10.77;100.00
35226;BME280;21813;49.686;21.766;2023-04-25T05:30:56;97108.63;;;10.66;100.00
35226;BME280;21813;49.686;21.766;2023-04-25T05:33:23;97128.50;;;10.67;100.00
35226;BME280;21813;49.686;21.766;2023-04-25T05:35:49;97114.44;;;10.60;100.00
35226;BME280;21813;49.686;21.766;2023-04-25T05:38:18;97128.13;;;10.62;100.00
35226;BME280;21813;49.686;21.766;2023-04-25T05:40:44;97116.50;;;10.48;100.00
35226;BME280;21813;49.686;21.766;2023-04-25T05:43:11;97133.44;;;10.52;100.00
35226;BME280;21813;49.686;21.766;2023-04-25T05:45:37;97111.97;;;10.33;100.00
35226;BME280;21813;49.686;21.766;2023-04-25T05:48:03;97108.34;;;10.26;100.00
35226;BME280;21813;49.686;21.766;2023-04-25T05:50:38;97133.63;;;10.33;100.00
35226;BME280;21813;49.686;21.766;2023-04-25T05:53:04;97127.69;;;10.23;100.00
35226;BME280;21813;49.686;21.766;2023-04-25T05:55:31;97142.03;;;10.27;100.00
35226;BME280;21813;49.686;21.766;2023-04-25T05:57:57;97132.38;;;10.19;100.00
35226;BME280;21813;49.686;21.766;2023-04-25T06:00:23;97151.56;;;10.18;100.00
35226;BME280;21813;49.686;21.766;2023-04-25T06:02:50;97130.25;;;10.05;100.00
35226;BME280;21813;49.686;21.766;2023-04-25T06:05:20;97133.47;;;9.99;100.00
35226;BME280;21813;49.686;21.766;2023-04-25T06:07:52;97145.88;;;10.05;100.00
35226;BME280;21813;49.686;21.766;2023-04-25T06:10:38;97153.31;;;10.00;100.00
35226;BME280;21813;49.686;21.766;2023-04-25T06:13:05;97128.75;;;9.85;100.00
35226;BME280;21813;49.686;21.766;2023-04-25T06:15:31;97150.13;;;9.89;100.00
35226;BME280;21813;49.686;21.766;2023-04-25T06:17:58;97149.25;;;9.80;100.00
35226;BME280;21813;49.686;21.766;2023-04-25T06:20:24;97160.97;;;9.84;100.00
35226;BME280;21813;49.686;21.766;2023-04-25T06:22:51;97156.75;;;9.83;100.00
35226;BME280;21813;49.686;21.766;2023-04-25T06:25:17;97165.50;;;9.82;100.00
35226;BME280;21813;49.686;21.766;2023-04-25T06:27:44;97177.84;;;9.80;100.00
35226;BME280;21813;49.686;21.766;2023-04-25T06:30:10;97179.78;;;9.78;100.00
35226;BME280;21813;49.686;21.766;2023-04-25T06:32:38;97168.03;;;9.74;100.00
35226;BME280;21813;49.686;21.766;2023-04-25T06:35:04;97170.75;;;9.72;100.00
35226;BME280;21813;49.686;21.766;2023-04-25T06:37:31;97177.75;;;9.72;100.00
35226;BME280;21813;49.686;21.766;2023-04-25T06:39:56;97173.38;;;9.72;100.00
35226;BME280;21813;49.686;21.766;2023-04-25T06:42:22;97173.53;;;9.71;100.00
35226;BME280;21813;49.686;21.766;2023-04-25T06:44:48;97173.81;;;9.68;100.00
35226;BME280;21813;49.686;21.766;2023-04-25T06:47:14;97159.59;;;9.62;100.00
35226;BME280;21813;49.686;21.766;2023-04-25T06:49:40;97164.28;;;9.59;100.00
35226;BME280;21813;49.686;21.766;2023-04-25T06:52:07;97179.16;;;9.66;100.00
35226;BME280;21813;49.686;21.766;2023-04-25T06:54:33;97173.81;;;9.68;100.00
35226;BME280;21813;49.686;21.766;2023-04-25T06:56:59;97172.78;;;9.61;100.00
35226;BME280;21813;49.686;21.766;2023-04-25T06:59:26;97160.63;;;9.52;100.00
35226;BME280;21813;49.686;21.766;2023-04-25T07:01:52;97162.69;;;9.48;100.00
35226;BME280;21813;49.686;21.766;2023-04-25T07:04:18;97173.91;;;9.49;100.00
35226;BME280;21813;49.686;21.766;2023-04-25T07:06:45;97178.28;;;9.48;100.00
35226;BME280;21813;49.686;21.766;2023-04-25T07:09:13;97171.47;;;9.47;100.00
35226;BME280;21813;49.686;21.766;2023-04-25T07:11:39;97174.22;;;9.46;100.00
35226;BME280;21813;49.686;21.766;2023-04-25T07:14:05;97183.50;;;9.48;100.00
35226;BME280;21813;49.686;21.766;2023-04-25T07:16:31;97184.09;;;9.42;100.00
35226;BME280;21813;49.686;21.766;2023-04-25T07:18:57;97180.56;;;9.34;100.00
35226;BME280;21813;49.686;21.766;2023-04-25T07:21:24;97191.63;;;9.36;100.00
35226;BME280;21813;49.686;21.766;2023-04-25T07:23:49;97188.63;;;9.30;100.00
35226;BME280;21813;49.686;21.766;2023-04-25T07:26:17;97197.41;;;9.29;100.00
35226;BME280;21813;49.686;21.766;2023-04-25T07:28:42;97194.13;;;9.27;100.00
35226;BME280;21813;49.686;21.766;2023-04-25T07:31:09;97208.09;;;9.26;100.00
35226;BME280;21813;49.686;21.766;2023-04-25T07:33:35;97202.22;;;9.24;100.00
35226;BME280;21813;49.686;21.766;2023-04-25T07:36:01;97206.88;;;9.21;100.00
35226;BME280;21813;49.686;21.766;2023-04-25T07:38:26;97203.09;;;9.15;100.00
35226;BME280;21813;49.686;21.766;2023-04-25T07:40:53;97219.06;;;9.20;100.00
35226;BME280;21813;49.686;21.766;2023-04-25T07:43:19;97206.66;;;9.14;100.00
35226;BME280;21813;49.686;21.766;2023-04-25T07:45:46;97222.91;;;9.16;100.00
35226;BME280;21813;49.686;21.766;2023-04-25T07:48:17;97233.16;;;9.18;100.00
35226;BME280;21813;49.686;21.766;2023-04-25T07:50:48;97229.34;;;9.12;100.00
35226;BME280;21813;49.686;21.766;2023-04-25T07:53:14;97207.19;;;9.08;100.00
35226;BME280;21813;49.686;21.766;2023-04-25T07:55:40;97217.31;;;9.11;100.00
35226;BME280;21813;49.686;21.766;2023-04-25T07:58:11;97230.03;;;9.14;100.00
35226;BME280;21813;49.686;21.766;2023-04-25T08:00:38;97228.91;;;9.17;100.00
35226;BME280;21813;49.686;21.766;2023-04-25T08:03:04;97225.41;;;9.08;100.00
35226;BME280;21813;49.686;21.766;2023-04-25T08:05:31;97211.88;;;9.05;100.00
35226;BME280;21813;49.686;21.766;2023-04-25T08:07:57;97239.47;;;9.15;100.00
35226;BME280;21813;49.686;21.766;2023-04-25T08:10:23;97228.53;;;9.12;100.00
35226;BME280;21813;49.686;21.766;2023-04-25T08:12:49;97217.88;;;9.05;100.00
35226;BME280;21813;49.686;21.766;2023-04-25T08:15:15;97232.91;;;9.11;100.00
35226;BME280;21813;49.686;21.766;2023-04-25T08:17:41;97244.38;;;9.18;100.00
35226;BME280;21813;49.686;21.766;2023-04-25T08:20:08;97215.69;;;9.10;100.00
35226;BME280;21813;49.686;21.766;2023-04-25T08:22:34;97218.94;;;9.12;100.00
35226;BME280;21813;49.686;21.766;2023-04-25T08:25:00;97234.00;;;9.18;100.00
35226;BME280;21813;49.686;21.766;2023-04-25T08:27:26;97242.75;;;9.17;100.00
35226;BME280;21813;49.686;21.766;2023-04-25T08:29:54;97251.22;;;9.19;100.00
35226;BME280;21813;49.686;21.766;2023-04-25T08:32:19;97256.69;;;9.16;100.00
35226;BME280;21813;49.686;21.766;2023-04-25T08:34:47;97242.75;;;9.08;100.00
35226;BME280;21813;49.686;21.766;2023-04-25T08:37:13;97264.38;;;9.08;100.00
35226;BME280;21813;49.686;21.766;2023-04-25T08:39:39;97242.25;;;8.95;100.00
35226;BME280;21813;49.686;21.766;2023-04-25T08:42:06;97250.31;;;9.01;100.00
35226;BME280;21813;49.686;21.766;2023-04-25T08:44:37;97255.34;;;9.03;100.00
35226;BME280;21813;49.686;21.766;2023-04-25T08:47:04;97270.13;;;9.02;100.00
35226;BME280;21813;49.686;21.766;2023-04-25T08:49:35;97271.38;;;8.98;100.00
35226;BME280;21813;49.686;21.766;2023-04-25T08:52:03;97275.91;;;8.96;100.00
35226;BME280;21813;49.686;21.766;2023-04-25T08:54:32;97275.50;;;8.91;100.00
35226;BME280;21813;49.686;21.766;2023-04-25T08:57:01;97281.09;;;8.96;100.00
35226;BME280;21813;49.686;21.766;2023-04-25T08:59:29;97271.94;;;8.92;100.00
35226;BME280;21813;49.686;21.766;2023-04-25T09:01:55;97280.41;;;8.94;100.00
35226;BME280;21813;49.686;21.766;2023-04-25T09:04:22;97286.56;;;8.93;100.00
35226;BME280;21813;49.686;21.766;2023-04-25T09:06:48;97295.72;;;8.97;100.00
35226;BME280;21813;49.686;21.766;2023-04-25T09:09:14;97298.59;;;8.94;100.00
35226;BME280;21813;49.686;21.766;2023-04-25T09:11:39;97292.72;;;8.92;100.00
35226;BME280;21813;49.686;21.766;2023-04-25T09:14:16;97286.31;;;8.96;100.00
35226;BME280;21813;49.686;21.766;2023-04-25T09:16:58;97304.19;;;8.99;100.00
35226;BME280;21813;49.686;21.766;2023-04-25T09:19:30;97301.31;;;8.93;100.00
35226;BME280;21813;49.686;21.766;2023-04-25T09:22:00;97291.75;;;8.93;100.00
35226;BME280;21813;49.686;21.766;2023-04-25T09:26:57;97305.16;;;8.98;100.00
35226;BME280;21813;49.686;21.766;2023-04-25T09:29:31;97311.31;;;8.97;100.00
35226;BME280;21813;49.686;21.766;2023-04-25T09:32:19;97308.44;;;8.91;100.00
35226;BME280;21813;49.686;21.766;2023-04-25T09:34:50;97314.47;;;8.91;100.00
35226;BME280;21813;49.686;21.766;2023-04-25T09:37:24;97304.91;;;8.82;100.00
35226;BME280;21813;49.686;21.766;2023-04-25T09:39:57;97321.84;;;8.86;100.00
35226;BME280;21813;49.686;21.766;2023-04-25T09:42:26;97322.81;;;8.85;100.00
35226;BME280;21813;49.686;21.766;2023-04-25T09:44:54;97318.56;;;8.84;100.00
35226;BME280;21813;49.686;21.766;2023-04-25T09:47:20;97319.94;;;8.88;100.00
35226;BME280;21813;49.686;21.766;2023-04-25T09:49:50;97325.41;;;8.85;100.00
35226;BME280;21813;49.686;21.766;2023-04-25T09:52:18;97327.06;;;8.86;100.00
35226;BME280;21813;49.686;21.766;2023-04-25T09:54:47;97316.94;;;8.83;100.00
35226;BME280;21813;49.686;21.766;2023-04-25T09:57:22;97321.72;;;8.88;100.00
35226;BME280;21813;49.686;21.766;2023-04-25T09:59:52;97318.97;;;8.89;100.00
35226;BME280;21813;49.686;21.766;2023-04-25T10:02:20;97316.25;;;8.81;100.00
35226;BME280;21813;49.686;21.766;2023-04-25T10:04:49;97333.19;;;8.85;100.00
35226;BME280;21813;49.686;21.766;2023-04-25T10:07:18;97319.38;;;8.84;100.00
35226;BME280;21813;49.686;21.766;2023-04-25T10:09:48;97333.31;;;8.93;100.00
35226;BME280;21813;49.686;21.766;2023-04-25T10:12:16;97321.84;;;8.86;100.00
35226;BME280;21813;49.686;21.766;2023-04-25T10:14:44;97330.06;;;8.91;100.00
35226;BME280;21813;49.686;21.766;2023-04-25T10:17:10;97313.94;;;8.88;100.00
35226;BME280;21813;49.686;21.766;2023-04-25T10:19:40;97327.31;;;8.93;100.00
35226;BME280;21813;49.686;21.766;2023-04-25T10:22:20;97328.13;;;8.93;100.00
35226;BME280;21813;49.686;21.766;2023-04-25T10:24:49;97328.13;;;8.93;100.00
35226;BME280;21813;49.686;21.766;2023-04-25T10:27:16;97309.16;;;8.83;100.00
35226;BME280;21813;49.686;21.766;2023-04-25T10:29:43;97325.13;;;8.98;100.00
35226;BME280;21813;49.686;21.766;2023-04-25T10:32:09;97321.97;;;8.94;100.00
35226;BME280;21813;49.686;21.766;2023-04-25T10:34:43;97325.13;;;8.98;100.00
35226;BME280;21813;49.686;21.766;2023-04-25T10:37:12;97326.63;;;9.00;100.00
35226;BME280;21813;49.686;21.766;2023-04-25T10:39:40;97321.44;;;9.00;100.00
35226;BME280;21813;49.686;21.766;2023-04-25T10:42:09;97327.59;;;8.99;100.00
35226;BME280;21813;49.686;21.766;2023-04-25T10:44:37;97317.88;;;9.01;100.00
35226;BME280;21813;49.686;21.766;2023-04-25T10:47:03;97316.66;;;9.05;100.00
35226;BME280;21813;49.686;21.766;2023-04-25T10:49:38;97319.91;;;9.07;100.00
35226;BME280;21813;49.686;21.766;2023-04-25T10:54:56;97322.66;;;9.15;100.00
35226;BME280;21813;49.686;21.766;2023-04-25T10:57:41;97308.56;;;9.08;100.00
35226;BME280;21813;49.686;21.766;2023-04-25T11:00:17;97329.78;;;9.13;100.00
35226;BME280;21813;49.686;21.766;2023-04-25T11:02:48;97331.66;;;9.11;100.00
35226;BME280;21813;49.686;21.766;2023-04-25T11:07:54;97321.16;;;9.03;100.00
35226;BME280;21813;49.686;21.766;2023-04-25T11:10:26;97335.66;;;9.06;100.00
35226;BME280;21813;49.686;21.766;2023-04-25T11:12:53;97336.88;;;9.02;100.00
35226;BME280;21813;49.686;21.766;2023-04-25T11:15:19;97321.03;;;8.95;100.00
35226;BME280;21813;49.686;21.766;2023-04-25T11:17:47;97320.34;;;8.93;100.00
35226;BME280;21813;49.686;21.766;2023-04-25T11:20:13;97337.56;;;9.04;100.00
35226;BME280;21813;49.686;21.766;2023-04-25T11:22:41;97335.09;;;9.02;100.00
35226;BME280;21813;49.686;21.766;2023-04-25T11:25:08;97328.13;;;8.93;100.00
35226;BME280;21813;49.686;21.766;2023-04-25T11:27:58;97342.09;;;8.92;100.00
35226;BME280;21813;49.686;21.766;2023-04-25T11:30:26;97338.81;;;8.90;100.00
35226;BME280;21813;49.686;21.766;2023-04-25T11:32:54;97318.97;;;8.79;100.00
35226;BME280;21813;49.686;21.766;2023-04-25T11:35:21;97335.50;;;8.88;100.00
35226;BME280;21813;49.686;21.766;2023-04-25T11:37:48;97330.88;;;8.92;100.00
35226;BME280;21813;49.686;21.766;2023-04-25T11:40:16;97328.41;;;8.90;100.00
35226;BME280;21813;49.686;21.766;2023-04-25T11:42:46;97338.94;;;8.98;100.00
35226;BME280;21813;49.686;21.766;2023-04-25T11:45:14;97328.13;;;8.93;100.00
35226;BME280;21813;49.686;21.766;2023-04-25T11:47:40;97322.13;;;8.93;100.00
35226;BME280;21813;49.686;21.766;2023-04-25T11:50:07;97337.28;;;8.97;100.00
35226;BME280;21813;49.686;21.766;2023-04-25T11:52:37;97336.63;;;8.95;100.00
35226;BME280;21813;49.686;21.766;2023-04-25T11:55:12;97336.63;;;8.95;100.00
35226;BME280;21813;49.686;21.766;2023-04-25T11:57:39;97330.88;;;8.92;100.00
35226;BME280;21813;49.686;21.766;2023-04-25T12:02:37;97328.41;;;8.90;100.00
35226;BME280;21813;49.686;21.766;2023-04-25T12:05:07;97325.94;;;8.88;100.00
35226;BME280;21813;49.686;21.766;2023-04-25T12:07:34;97341.53;;;8.98;100.00
35226;BME280;21813;49.686;21.766;2023-04-25T12:10:05;97326.50;;;8.92;100.00
35226;BME280;21813;49.686;21.766;2023-04-25T12:12:35;97333.91;;;8.97;100.00
35226;BME280;21813;49.686;21.766;2023-04-25T12:15:14;97331.13;;;8.98;100.00
35226;BME280;21813;49.686;21.766;2023-04-25T12:17:52;97323.91;;;8.92;100.00
35226;BME280;21813;49.686;21.766;2023-04-25T12:20:23;97325.28;;;8.96;100.00
35226;BME280;21813;49.686;21.766;2023-04-25T12:22:49;97328.28;;;9.01;100.00
35226;BME280;21813;49.686;21.766;2023-04-25T12:25:42;97335.91;;;9.12;100.00
35226;BME280;21813;49.686;21.766;2023-04-25T12:31:01;97335.78;;;9.23;100.00
35226;BME280;21813;49.686;21.766;2023-04-25T12:33:29;97326.44;;;9.30;100.00
35226;BME280;21813;49.686;21.766;2023-04-25T12:35:56;97309.78;;;9.23;100.00
35226;BME280;21813;49.686;21.766;2023-04-25T12:38:26;97329.19;;;9.39;100.00
35226;BME280;21813;49.686;21.766;2023-04-25T12:40:53;97319.44;;;9.41;100.00
35226;BME280;21813;49.686;21.766;2023-04-25T12:43:19;97322.06;;;9.41;100.00
35226;BME280;21813;49.686;21.766;2023-04-25T12:45:53;97332.19;;;9.34;100.00
35226;BME280;21813;49.686;21.766;2023-04-25T12:48:20;97331.94;;;9.27;100.00
35226;BME280;21813;49.686;21.766;2023-04-25T12:50:48;97315.53;;;9.17;100.00
35226;BME280;21813;49.686;21.766;2023-04-25T12:53:18;97321.41;;;9.19;100.00
35226;BME280;21813;49.686;21.766;2023-04-25T12:55:45;97309.25;;;9.10;100.00
35226;BME280;21813;49.686;21.766;2023-04-25T12:58:17;97320.72;;;9.17;100.00
35226;BME280;21813;49.686;21.766;2023-04-25T13:00:45;97311.16;;;9.08;100.00